| time (UTC) | temp F | wind direction | speed knots | gust knots | rain 1hr in | rain 24hr in | rain mn in | humidity % | barometer mb |
| 20260505070055 | 45 | 0 | 0.0 | 0.0 | 0.00 | 0.00 | 0.00 | 82 | 1011.5 |
| 20260505064600 | 46 | 0 | 0.0 | 0.0 | 0.00 | 0.00 | 0.00 | 82 | 1011.3 |
| 20260505063053 | 46 | 0 | 0.0 | 0.0 | 0.00 | 0.00 | 0.00 | 81 | 1011.2 |
| 20260505061552 | 47 | 0 | 0.0 | 0.0 | 0.00 | 0.00 | 0.00 | 79 | 1011.1 |
| 20260505060058 | 47 | 0 | 0.0 | 0.0 | 0.00 | 0.00 | 0.00 | 77 | 1011.0 |
| 20260505054604 | 48 | 0 | 0.0 | 0.9 | 0.00 | 0.00 | 0.00 | 77 | 1011.1 |
| 20260505053109 | 49 | 0 | 0.0 | 1.7 | 0.00 | 0.00 | 0.00 | 76 | 1010.9 |
| 20260505051550 | 50 | 51 | 0.9 | 1.7 | 0.00 | 0.00 | 0.00 | 73 | 1010.8 |
| 20260505041612 | 53 | 0 | 0.0 | 0.0 | 0.00 | 0.00 | 0.00 | 65 | 1010.1 |
| 20260505040054 | 55 | 0 | 0.0 | 0.0 | 0.00 | 0.00 | 0.00 | 64 | 1009.9 |
| 20260505034553 | 57 | 0 | 0.0 | 0.0 | 0.00 | 0.00 | 0.00 | 61 | 1009.9 |
| 20260505033052 | 59 | 0 | 0.0 | 0.0 | 0.00 | 0.00 | 0.00 | 57 | 1009.6 |
| 20260505031600 | 61 | 0 | 0.0 | 0.0 | 0.00 | 0.00 | 0.00 | 55 | 1009.5 |
| 20260505030056 | 64 | 0 | 0.0 | 2.6 | 0.00 | 0.00 | 0.00 | 51 | 1009.5 |
| 20260505024552 | 66 | 0 | 0.0 | 2.6 | 0.00 | 0.00 | 0.00 | 44 | 1009.5 |
| 20260505023102 | 68 | 0 | 0.0 | 2.6 | 0.00 | 0.00 | 0.00 | 38 | 1009.4 |
| 20260505021555 | 69 | 107 | 0.9 | 5.2 | 0.00 | 0.00 | 0.00 | 35 | 1009.4 |
| 20260505020053 | 69 | 92 | 1.7 | 7.8 | 0.00 | 0.00 | 0.00 | 35 | 1009.4 |
| 20260505014557 | 70 | 13 | 2.6 | 7.8 | 0.00 | 0.00 | 0.00 | 34 | 1009.4 |
| 20260505013059 | 70 | 72 | 2.6 | 7.8 | 0.00 | 0.00 | 0.00 | 34 | 1009.4 |
| 20260505011552 | 70 | 44 | 2.6 | 8.7 | 0.00 | 0.00 | 0.00 | 33 | 1009.4 |
| 20260505010051 | 71 | 36 | 3.5 | 8.7 | 0.00 | 0.00 | 0.00 | 33 | 1009.5 |
| 20260505004549 | 71 | 344 | 2.6 | 8.7 | 0.00 | 0.00 | 0.00 | 33 | 1009.5 |
| 20260505003050 | 72 | 132 | 2.6 | 9.6 | 0.00 | 0.00 | 0.00 | 32 | 1009.4 |
| 20260505001554 | 72 | 19 | 2.6 | 7.8 | 0.00 | 0.00 | 0.00 | 32 | 1009.4 |
| 20260505000105 | 72 | 66 | 2.6 | 9.6 | 0.00 | 0.00 | 0.00 | 30 | 1009.5 |
| 20260504234602 | 72 | 40 | 3.5 | 10.4 | 0.00 | 0.00 | 0.00 | 31 | 1009.5 |
| 20260504233046 | 72 | 72 | 3.5 | 11.3 | 0.00 | 0.00 | 0.00 | 31 | 1009.5 |
| 20260504231559 | 73 | 43 | 3.5 | 13.0 | 0.00 | 0.00 | 0.00 | 30 | 1009.5 |
| 20260504230052 | 73 | 22 | 3.5 | 10.4 | 0.00 | 0.00 | 0.00 | 30 | 1009.5 |
| 20260504224555 | 73 | 89 | 2.6 | 7.8 | 0.00 | 0.00 | 0.00 | 30 | 1009.7 |
| 20260504223055 | 73 | 70 | 3.5 | 10.4 | 0.00 | 0.00 | 0.00 | 31 | 1009.8 |
| 20260504221559 | 73 | 333 | 4.3 | 10.4 | 0.00 | 0.00 | 0.00 | 32 | 1009.8 |
| 20260504220053 | 73 | 344 | 2.6 | 11.3 | 0.00 | 0.00 | 0.00 | 32 | 1009.8 |
| 20260504214552 | 73 | 55 | 2.6 | 8.7 | 0.00 | 0.00 | 0.00 | 36 | 1009.9 |
| 20260504213053 | 72 | 0 | 1.7 | 10.4 | 0.00 | 0.00 | 0.00 | 33 | 1010.0 |
| 20260504211557 | 71 | 329 | 3.5 | 9.6 | 0.00 | 0.00 | 0.00 | 34 | 1010.1 |
| 20260504210108 | 71 | 333 | 7.0 | 13.9 | 0.00 | 0.00 | 0.00 | 34 | 1010.2 |
| 20260504204601 | 71 | 240 | 3.5 | 9.6 | 0.00 | 0.00 | 0.00 | 34 | 1010.3 |
| 20260504203052 | 71 | 349 | 5.2 | 12.2 | 0.00 | 0.00 | 0.00 | 34 | 1010.3 |
| 20260504201554 | 71 | 56 | 1.7 | 8.7 | 0.00 | 0.00 | 0.00 | 35 | 1010.3 |
| 20260504200100 | 71 | 27 | 6.1 | 12.2 | 0.00 | 0.00 | 0.00 | 36 | 1010.4 |
| 20260504194602 | 71 | 38 | 3.5 | 10.4 | 0.00 | 0.00 | 0.00 | 35 | 1010.4 |
| 20260504193053 | 70 | 355 | 2.6 | 8.7 | 0.00 | 0.00 | 0.00 | 37 | 1010.4 |
| 20260504191556 | 70 | 47 | 3.5 | 8.7 | 0.00 | 0.00 | 0.00 | 37 | 1010.4 |
| 20260504190117 | 69 | 85 | 3.5 | 10.4 | 0.00 | 0.00 | 0.00 | 38 | 1010.4 |
| 20260504184557 | 68 | 38 | 3.5 | 10.4 | 0.00 | 0.00 | 0.00 | 40 | 1010.4 |
| 20260504183053 | 68 | 46 | 4.3 | 11.3 | 0.00 | 0.00 | 0.00 | 39 | 1010.7 |
| 20260504181558 | 67 | 72 | 4.3 | 9.6 | 0.00 | 0.00 | 0.00 | 40 | 1010.7 |
| 20260504180143 | 67 | 339 | 3.5 | 9.6 | 0.00 | 0.00 | 0.00 | 40 | 1010.7 |
| 20260504174552 | 66 | 19 | 3.5 | 8.7 | 0.00 | 0.00 | 0.00 | 41 | 1010.6 |
| 20260504173114 | 66 | 70 | 5.2 | 8.7 | 0.00 | 0.00 | 0.00 | 42 | 1010.6 |
| 20260504171553 | 65 | 33 | 2.6 | 11.3 | 0.00 | 0.00 | 0.00 | 42 | 1010.7 |
| 20260504140112 | 43 | 0 | 0.0 | 0.0 | 0.00 | 0.00 | 0.00 | 93 | 1010.4 |
| 20260504120112 | 40 | 0 | 0.0 | 0.0 | 0.00 | 0.00 | 0.00 | 89 | 1009.6 |
| 20260504081601 | 47 | 0 | 0.0 | 0.0 | 0.00 | 0.00 | 0.00 | 78 | 1009.1 |